sensor_id;sensor_type;location;lat;lon;timestamp;P1;durP1;ratioP1;P2;durP2;ratioP2
8104;SDS011;4095;48.942;9.104;2022-09-09T00:00:23;5.27;;;2.53;;
8104;SDS011;4095;48.942;9.104;2022-09-09T00:03:24;3.80;;;2.43;;
8104;SDS011;4095;48.942;9.104;2022-09-09T00:09:16;4.50;;;2.63;;
8104;SDS011;4095;48.942;9.104;2022-09-09T00:14:31;3.53;;;2.20;;
8104;SDS011;4095;48.942;9.104;2022-09-09T00:17:01;5.53;;;2.10;;
8104;SDS011;4095;48.942;9.104;2022-09-09T00:22:22;3.10;;;2.30;;
8104;SDS011;4095;48.942;9.104;2022-09-09T00:24:52;5.93;;;2.10;;
8104;SDS011;4095;48.942;9.104;2022-09-09T00:30:18;4.73;;;2.17;;
8104;SDS011;4095;48.942;9.104;2022-09-09T00:32:59;4.37;;;2.10;;
8104;SDS011;4095;48.942;9.104;2022-09-09T00:38:05;3.77;;;2.20;;
8104;SDS011;4095;48.942;9.104;2022-09-09T00:40:50;2.80;;;1.93;;
8104;SDS011;4095;48.942;9.104;2022-09-09T00:56:47;5.40;;;2.40;;
8104;SDS011;4095;48.942;9.104;2022-09-09T00:59:24;5.33;;;2.23;;
8104;SDS011;4095;48.942;9.104;2022-09-09T01:02:01;4.53;;;2.10;;
8104;SDS011;4095;48.942;9.104;2022-09-09T01:04:36;4.03;;;1.63;;
8104;SDS011;4095;48.942;9.104;2022-09-09T01:07:05;3.33;;;2.07;;
8104;SDS011;4095;48.942;9.104;2022-09-09T01:15:25;3.03;;;1.80;;
8104;SDS011;4095;48.942;9.104;2022-09-09T01:18:07;4.90;;;2.00;;
8104;SDS011;4095;48.942;9.104;2022-09-09T01:20:46;3.47;;;2.00;;
8104;SDS011;4095;48.942;9.104;2022-09-09T01:28:27;2.37;;;1.57;;
8104;SDS011;4095;48.942;9.104;2022-09-09T01:30:54;3.23;;;2.00;;
8104;SDS011;4095;48.942;9.104;2022-09-09T01:33:21;5.33;;;2.10;;
8104;SDS011;4095;48.942;9.104;2022-09-09T01:38:19;4.77;;;2.00;;
8104;SDS011;4095;48.942;9.104;2022-09-09T01:40:46;4.37;;;2.20;;
8104;SDS011;4095;48.942;9.104;2022-09-09T01:43:12;3.70;;;2.00;;
8104;SDS011;4095;48.942;9.104;2022-09-09T01:45:39;3.37;;;2.10;;
8104;SDS011;4095;48.942;9.104;2022-09-09T01:48:06;3.60;;;2.00;;
8104;SDS011;4095;48.942;9.104;2022-09-09T01:50:32;5.00;;;2.20;;
8104;SDS011;4095;48.942;9.104;2022-09-09T01:52:58;4.47;;;1.87;;
8104;SDS011;4095;48.942;9.104;2022-09-09T01:55:37;3.50;;;1.67;;
8104;SDS011;4095;48.942;9.104;2022-09-09T02:00:42;6.23;;;2.20;;
8104;SDS011;4095;48.942;9.104;2022-09-09T02:03:35;3.37;;;1.90;;
8104;SDS011;4095;48.942;9.104;2022-09-09T02:11:11;4.87;;;2.13;;
8104;SDS011;4095;48.942;9.104;2022-09-09T02:13:42;5.03;;;2.10;;
8104;SDS011;4095;48.942;9.104;2022-09-09T02:21:38;3.37;;;1.90;;
8104;SDS011;4095;48.942;9.104;2022-09-09T02:24:07;4.90;;;2.40;;
8104;SDS011;4095;48.942;9.104;2022-09-09T02:26:36;3.30;;;1.90;;
8104;SDS011;4095;48.942;9.104;2022-09-09T02:29:06;5.03;;;2.03;;
8104;SDS011;4095;48.942;9.104;2022-09-09T02:31:41;3.63;;;2.00;;
8104;SDS011;4095;48.942;9.104;2022-09-09T02:34:09;3.53;;;2.13;;
8104;SDS011;4095;48.942;9.104;2022-09-09T02:36:37;4.03;;;2.00;;
8104;SDS011;4095;48.942;9.104;2022-09-09T02:39:07;3.27;;;1.80;;
8104;SDS011;4095;48.942;9.104;2022-09-09T02:41:36;2.30;;;1.93;;
8104;SDS011;4095;48.942;9.104;2022-09-09T02:44:11;3.57;;;2.00;;
8104;SDS011;4095;48.942;9.104;2022-09-09T02:52:21;5.07;;;2.07;;
8104;SDS011;4095;48.942;9.104;2022-09-09T02:54:57;4.20;;;1.80;;
8104;SDS011;4095;48.942;9.104;2022-09-09T02:57:30;3.60;;;2.20;;
8104;SDS011;4095;48.942;9.104;2022-09-09T02:59:58;3.63;;;2.10;;
8104;SDS011;4095;48.942;9.104;2022-09-09T03:02:25;3.23;;;1.70;;
8104;SDS011;4095;48.942;9.104;2022-09-09T03:04:51;3.03;;;1.90;;
8104;SDS011;4095;48.942;9.104;2022-09-09T03:07:19;4.33;;;1.90;;
8104;SDS011;4095;48.942;9.104;2022-09-09T03:09:45;2.87;;;2.10;;
8104;SDS011;4095;48.942;9.104;2022-09-09T03:12:11;3.50;;;1.70;;
8104;SDS011;4095;48.942;9.104;2022-09-09T03:14:38;4.80;;;2.10;;
8104;SDS011;4095;48.942;9.104;2022-09-09T03:17:04;4.80;;;2.20;;
8104;SDS011;4095;48.942;9.104;2022-09-09T03:19:30;3.67;;;2.20;;
8104;SDS011;4095;48.942;9.104;2022-09-09T03:21:56;3.57;;;2.03;;
8104;SDS011;4095;48.942;9.104;2022-09-09T03:24:23;5.17;;;2.10;;
8104;SDS011;4095;48.942;9.104;2022-09-09T03:26:49;4.47;;;2.23;;
8104;SDS011;4095;48.942;9.104;2022-09-09T03:29:15;5.60;;;2.40;;
8104;SDS011;4095;48.942;9.104;2022-09-09T03:31:42;6.07;;;2.80;;
8104;SDS011;4095;48.942;9.104;2022-09-09T03:34:08;4.80;;;2.50;;
8104;SDS011;4095;48.942;9.104;2022-09-09T03:36:34;4.43;;;2.50;;
8104;SDS011;4095;48.942;9.104;2022-09-09T03:38:59;5.50;;;2.30;;
8104;SDS011;4095;48.942;9.104;2022-09-09T03:41:25;6.57;;;2.20;;
8104;SDS011;4095;48.942;9.104;2022-09-09T03:43:52;2.90;;;1.80;;
8104;SDS011;4095;48.942;9.104;2022-09-09T03:46:22;4.27;;;2.03;;
8104;SDS011;4095;48.942;9.104;2022-09-09T03:48:49;2.83;;;1.80;;
8104;SDS011;4095;48.942;9.104;2022-09-09T03:51:15;4.80;;;2.10;;
8104;SDS011;4095;48.942;9.104;2022-09-09T03:53:42;3.73;;;1.80;;
8104;SDS011;4095;48.942;9.104;2022-09-09T03:56:08;2.10;;;1.50;;
8104;SDS011;4095;48.942;9.104;2022-09-09T03:58:35;2.93;;;1.63;;
8104;SDS011;4095;48.942;9.104;2022-09-09T04:01:03;3.40;;;1.70;;
8104;SDS011;4095;48.942;9.104;2022-09-09T04:03:38;4.17;;;1.60;;
8104;SDS011;4095;48.942;9.104;2022-09-09T04:06:04;3.17;;;1.60;;
8104;SDS011;4095;48.942;9.104;2022-09-09T04:08:31;2.97;;;1.60;;
8104;SDS011;4095;48.942;9.104;2022-09-09T04:10:57;2.83;;;1.57;;
8104;SDS011;4095;48.942;9.104;2022-09-09T04:13:25;2.73;;;1.40;;
8104;SDS011;4095;48.942;9.104;2022-09-09T04:15:55;4.53;;;1.40;;
8104;SDS011;4095;48.942;9.104;2022-09-09T04:18:22;3.57;;;1.27;;
8104;SDS011;4095;48.942;9.104;2022-09-09T04:20:49;4.47;;;1.83;;
8104;SDS011;4095;48.942;9.104;2022-09-09T04:23:16;3.80;;;1.50;;
8104;SDS011;4095;48.942;9.104;2022-09-09T04:25:48;3.33;;;1.50;;
8104;SDS011;4095;48.942;9.104;2022-09-09T04:28:16;2.33;;;1.40;;
8104;SDS011;4095;48.942;9.104;2022-09-09T04:30:43;2.03;;;1.50;;
8104;SDS011;4095;48.942;9.104;2022-09-09T04:33:09;2.33;;;1.83;;
8104;SDS011;4095;48.942;9.104;2022-09-09T04:35:35;5.27;;;2.13;;
8104;SDS011;4095;48.942;9.104;2022-09-09T04:38:02;4.27;;;2.10;;
8104;SDS011;4095;48.942;9.104;2022-09-09T04:40:29;3.97;;;1.90;;
8104;SDS011;4095;48.942;9.104;2022-09-09T04:42:57;4.93;;;2.10;;
8104;SDS011;4095;48.942;9.104;2022-09-09T04:45:23;3.40;;;2.07;;
8104;SDS011;4095;48.942;9.104;2022-09-09T04:47:49;3.90;;;2.10;;
8104;SDS011;4095;48.942;9.104;2022-09-09T04:50:14;4.97;;;2.20;;
8104;SDS011;4095;48.942;9.104;2022-09-09T04:52:40;4.37;;;2.03;;
8104;SDS011;4095;48.942;9.104;2022-09-09T04:55:06;6.13;;;2.43;;
8104;SDS011;4095;48.942;9.104;2022-09-09T04:57:32;2.97;;;2.00;;
8104;SDS011;4095;48.942;9.104;2022-09-09T04:59:59;5.10;;;2.47;;
8104;SDS011;4095;48.942;9.104;2022-09-09T05:02:25;4.50;;;2.40;;
8104;SDS011;4095;48.942;9.104;2022-09-09T05:04:51;6.83;;;2.43;;
8104;SDS011;4095;48.942;9.104;2022-09-09T05:07:17;6.67;;;2.53;;
8104;SDS011;4095;48.942;9.104;2022-09-09T05:09:43;3.57;;;2.07;;
8104;SDS011;4095;48.942;9.104;2022-09-09T05:12:10;3.93;;;2.20;;
8104;SDS011;4095;48.942;9.104;2022-09-09T05:14:36;3.17;;;2.17;;
8104;SDS011;4095;48.942;9.104;2022-09-09T05:17:02;5.27;;;2.60;;
8104;SDS011;4095;48.942;9.104;2022-09-09T05:19:28;4.00;;;2.70;;
8104;SDS011;4095;48.942;9.104;2022-09-09T05:21:56;4.30;;;2.53;;
8104;SDS011;4095;48.942;9.104;2022-09-09T05:24:21;4.87;;;2.70;;
8104;SDS011;4095;48.942;9.104;2022-09-09T05:26:48;7.90;;;3.00;;
8104;SDS011;4095;48.942;9.104;2022-09-09T05:29:13;3.77;;;2.90;;
8104;SDS011;4095;48.942;9.104;2022-09-09T05:31:39;5.50;;;2.70;;
8104;SDS011;4095;48.942;9.104;2022-09-09T05:34:06;4.57;;;2.63;;
8104;SDS011;4095;48.942;9.104;2022-09-09T05:36:31;4.03;;;2.40;;
8104;SDS011;4095;48.942;9.104;2022-09-09T05:38:57;3.67;;;1.93;;
8104;SDS011;4095;48.942;9.104;2022-09-09T05:41:23;3.93;;;2.30;;
8104;SDS011;4095;48.942;9.104;2022-09-09T05:43:48;4.10;;;2.10;;
8104;SDS011;4095;48.942;9.104;2022-09-09T05:48:40;4.87;;;1.83;;
8104;SDS011;4095;48.942;9.104;2022-09-09T05:51:08;3.87;;;1.90;;
8104;SDS011;4095;48.942;9.104;2022-09-09T05:53:40;3.83;;;1.90;;
8104;SDS011;4095;48.942;9.104;2022-09-09T05:56:20;4.60;;;1.67;;
8104;SDS011;4095;48.942;9.104;2022-09-09T05:58:47;4.83;;;1.87;;
8104;SDS011;4095;48.942;9.104;2022-09-09T06:01:17;3.37;;;1.90;;
8104;SDS011;4095;48.942;9.104;2022-09-09T06:03:47;2.97;;;1.40;;
8104;SDS011;4095;48.942;9.104;2022-09-09T06:06:16;5.00;;;1.40;;
8104;SDS011;4095;48.942;9.104;2022-09-09T06:08:45;3.40;;;1.53;;
8104;SDS011;4095;48.942;9.104;2022-09-09T06:13:42;4.70;;;1.23;;
8104;SDS011;4095;48.942;9.104;2022-09-09T06:16:08;1.70;;;1.17;;
8104;SDS011;4095;48.942;9.104;2022-09-09T06:18:38;2.83;;;1.20;;
8104;SDS011;4095;48.942;9.104;2022-09-09T06:21:05;2.07;;;1.20;;
8104;SDS011;4095;48.942;9.104;2022-09-09T06:23:35;3.50;;;1.43;;
8104;SDS011;4095;48.942;9.104;2022-09-09T06:26:02;5.13;;;1.20;;
8104;SDS011;4095;48.942;9.104;2022-09-09T06:28:49;2.13;;;1.20;;
8104;SDS011;4095;48.942;9.104;2022-09-09T06:31:18;3.43;;;1.07;;
8104;SDS011;4095;48.942;9.104;2022-09-09T06:33:52;2.27;;;1.10;;
8104;SDS011;4095;48.942;9.104;2022-09-09T06:36:24;4.00;;;1.17;;
8104;SDS011;4095;48.942;9.104;2022-09-09T06:38:54;2.43;;;1.20;;
8104;SDS011;4095;48.942;9.104;2022-09-09T06:41:21;4.03;;;1.30;;
8104;SDS011;4095;48.942;9.104;2022-09-09T06:43:48;4.53;;;1.50;;
8104;SDS011;4095;48.942;9.104;2022-09-09T06:46:15;3.40;;;1.20;;
8104;SDS011;4095;48.942;9.104;2022-09-09T06:48:43;3.57;;;1.43;;
8104;SDS011;4095;48.942;9.104;2022-09-09T06:51:10;3.00;;;1.27;;
8104;SDS011;4095;48.942;9.104;2022-09-09T06:53:37;2.23;;;1.23;;
8104;SDS011;4095;48.942;9.104;2022-09-09T06:58:35;2.80;;;1.20;;
8104;SDS011;4095;48.942;9.104;2022-09-09T07:01:05;5.17;;;1.30;;
8104;SDS011;4095;48.942;9.104;2022-09-09T07:03:35;2.67;;;1.40;;
8104;SDS011;4095;48.942;9.104;2022-09-09T07:06:01;4.43;;;1.30;;
8104;SDS011;4095;48.942;9.104;2022-09-09T07:08:27;2.73;;;1.30;;
8104;SDS011;4095;48.942;9.104;2022-09-09T07:10:53;3.07;;;1.00;;
8104;SDS011;4095;48.942;9.104;2022-09-09T07:13:28;2.30;;;1.27;;
8104;SDS011;4095;48.942;9.104;2022-09-09T07:15:53;3.00;;;1.00;;
8104;SDS011;4095;48.942;9.104;2022-09-09T07:18:19;2.83;;;1.23;;
8104;SDS011;4095;48.942;9.104;2022-09-09T07:20:54;3.33;;;1.30;;
8104;SDS011;4095;48.942;9.104;2022-09-09T07:23:22;3.47;;;1.20;;
8104;SDS011;4095;48.942;9.104;2022-09-09T07:25:48;2.50;;;1.10;;
8104;SDS011;4095;48.942;9.104;2022-09-09T07:28:15;2.53;;;1.00;;
8104;SDS011;4095;48.942;9.104;2022-09-09T07:30:41;2.30;;;1.10;;
8104;SDS011;4095;48.942;9.104;2022-09-09T07:33:07;2.40;;;1.00;;
8104;SDS011;4095;48.942;9.104;2022-09-09T07:35:34;6.07;;;1.43;;
8104;SDS011;4095;48.942;9.104;2022-09-09T07:38:03;3.80;;;1.10;;
8104;SDS011;4095;48.942;9.104;2022-09-09T07:40:32;2.20;;;1.00;;
8104;SDS011;4095;48.942;9.104;2022-09-09T07:42:59;3.97;;;1.20;;
8104;SDS011;4095;48.942;9.104;2022-09-09T07:45:25;2.73;;;1.00;;
8104;SDS011;4095;48.942;9.104;2022-09-09T07:47:53;2.67;;;1.20;;
8104;SDS011;4095;48.942;9.104;2022-09-09T07:50:20;3.63;;;1.10;;
8104;SDS011;4095;48.942;9.104;2022-09-09T07:52:45;5.50;;;1.40;;
8104;SDS011;4095;48.942;9.104;2022-09-09T07:55:11;2.10;;;1.10;;
8104;SDS011;4095;48.942;9.104;2022-09-09T07:57:37;4.67;;;1.30;;
8104;SDS011;4095;48.942;9.104;2022-09-09T08:00:03;2.63;;;1.17;;
8104;SDS011;4095;48.942;9.104;2022-09-09T08:02:29;2.67;;;1.00;;
8104;SDS011;4095;48.942;9.104;2022-09-09T08:04:55;2.73;;;1.13;;
8104;SDS011;4095;48.942;9.104;2022-09-09T08:07:21;2.73;;;1.30;;
8104;SDS011;4095;48.942;9.104;2022-09-09T08:09:48;2.93;;;1.23;;
8104;SDS011;4095;48.942;9.104;2022-09-09T08:12:14;3.83;;;1.20;;
8104;SDS011;4095;48.942;9.104;2022-09-09T08:14:39;4.13;;;1.40;;
8104;SDS011;4095;48.942;9.104;2022-09-09T08:17:05;2.13;;;1.00;;
8104;SDS011;4095;48.942;9.104;2022-09-09T08:19:31;4.20;;;1.30;;
8104;SDS011;4095;48.942;9.104;2022-09-09T08:22:00;4.10;;;1.30;;
8104;SDS011;4095;48.942;9.104;2022-09-09T08:24:27;3.53;;;1.43;;
8104;SDS011;4095;48.942;9.104;2022-09-09T08:26:53;5.67;;;1.43;;
8104;SDS011;4095;48.942;9.104;2022-09-09T08:29:18;4.32;;;1.33;;
8104;SDS011;4095;48.942;9.104;2022-09-09T08:31:48;2.60;;;1.03;;
8104;SDS011;4095;48.942;9.104;2022-09-09T08:34:19;4.37;;;1.20;;
8104;SDS011;4095;48.942;9.104;2022-09-09T08:36:46;5.13;;;1.40;;
8104;SDS011;4095;48.942;9.104;2022-09-09T08:39:14;3.03;;;1.20;;
8104;SDS011;4095;48.942;9.104;2022-09-09T08:52:51;4.07;;;1.40;;
8104;SDS011;4095;48.942;9.104;2022-09-09T08:55:50;2.40;;;1.15;;
8104;SDS011;4095;48.942;9.104;2022-09-09T08:58:25;2.72;;;1.25;;
8104;SDS011;4095;48.942;9.104;2022-09-09T09:11:56;2.42;;;0.88;;
8104;SDS011;4095;48.942;9.104;2022-09-09T09:14:31;4.32;;;1.27;;
8104;SDS011;4095;48.942;9.104;2022-09-09T09:17:12;2.55;;;1.00;;
8104;SDS011;4095;48.942;9.104;2022-09-09T09:19:50;3.35;;;1.10;;
8104;SDS011;4095;48.942;9.104;2022-09-09T09:25:05;3.03;;;1.20;;
8104;SDS011;4095;48.942;9.104;2022-09-09T09:27:54;1.40;;;0.90;;
8104;SDS011;4095;48.942;9.104;2022-09-09T09:30:24;4.85;;;1.42;;
8104;SDS011;4095;48.942;9.104;2022-09-09T09:32:54;3.05;;;1.20;;
8104;SDS011;4095;48.942;9.104;2022-09-09T09:35:25;2.42;;;1.10;;
8104;SDS011;4095;48.942;9.104;2022-09-09T09:37:50;2.67;;;1.08;;
8104;SDS011;4095;48.942;9.104;2022-09-09T09:40:18;2.42;;;1.25;;
8104;SDS011;4095;48.942;9.104;2022-09-09T09:42:48;3.67;;;1.10;;
8104;SDS011;4095;48.942;9.104;2022-09-09T09:45:32;2.70;;;1.08;;
8104;SDS011;4095;48.942;9.104;2022-09-09T09:48:06;2.80;;;1.20;;
8104;SDS011;4095;48.942;9.104;2022-09-09T09:50:39;2.55;;;1.23;;
8104;SDS011;4095;48.942;9.104;2022-09-09T09:53:21;3.28;;;1.30;;
8104;SDS011;4095;48.942;9.104;2022-09-09T09:56:00;1.88;;;0.98;;
8104;SDS011;4095;48.942;9.104;2022-09-09T09:58:32;2.78;;;1.10;;
8104;SDS011;4095;48.942;9.104;2022-09-09T10:01:02;1.35;;;0.90;;
8104;SDS011;4095;48.942;9.104;2022-09-09T10:06:02;3.97;;;1.20;;
8104;SDS011;4095;48.942;9.104;2022-09-09T10:08:28;3.50;;;1.20;;
8104;SDS011;4095;48.942;9.104;2022-09-09T10:13:51;3.90;;;1.33;;
8104;SDS011;4095;48.942;9.104;2022-09-09T10:19:15;2.45;;;1.15;;
8104;SDS011;4095;48.942;9.104;2022-09-09T10:38:16;2.13;;;1.10;;
8104;SDS011;4095;48.942;9.104;2022-09-09T10:43:36;3.25;;;1.30;;
8104;SDS011;4095;48.942;9.104;2022-09-09T10:57:21;2.20;;;1.23;;
8104;SDS011;4095;48.942;9.104;2022-09-09T11:00:06;2.83;;;1.20;;
8104;SDS011;4095;48.942;9.104;2022-09-09T11:02:40;2.45;;;1.13;;
8104;SDS011;4095;48.942;9.104;2022-09-09T11:05:29;3.85;;;1.17;;
8104;SDS011;4095;48.942;9.104;2022-09-09T11:08:08;2.90;;;1.20;;
8104;SDS011;4095;48.942;9.104;2022-09-09T11:10:41;2.72;;;1.15;;
8104;SDS011;4095;48.942;9.104;2022-09-09T11:16:01;2.83;;;1.27;;
8104;SDS011;4095;48.942;9.104;2022-09-09T11:18:38;2.70;;;0.80;;
8104;SDS011;4095;48.942;9.104;2022-09-09T11:21:07;2.57;;;0.87;;
8104;SDS011;4095;48.942;9.104;2022-09-09T11:23:43;2.03;;;0.90;;
8104;SDS011;4095;48.942;9.104;2022-09-09T11:26:18;3.53;;;1.10;;
8104;SDS011;4095;48.942;9.104;2022-09-09T11:28:59;2.20;;;0.80;;
8104;SDS011;4095;48.942;9.104;2022-09-09T11:31:52;3.20;;;1.00;;
8104;SDS011;4095;48.942;9.104;2022-09-09T11:40:24;1.27;;;0.67;;
8104;SDS011;4095;48.942;9.104;2022-09-09T11:43:15;2.43;;;0.67;;
8104;SDS011;4095;48.942;9.104;2022-09-09T11:45:49;3.20;;;0.90;;
8104;SDS011;4095;48.942;9.104;2022-09-09T11:51:30;3.37;;;1.10;;
8104;SDS011;4095;48.942;9.104;2022-09-09T11:53:51;2.00;;;0.57;;
8104;SDS011;4095;48.942;9.104;2022-09-09T12:01:28;1.07;;;0.53;;
8104;SDS011;4095;48.942;9.104;2022-09-09T12:04:05;1.00;;;0.50;;
8104;SDS011;4095;48.942;9.104;2022-09-09T12:12:32;1.57;;;0.90;;
8104;SDS011;4095;48.942;9.104;2022-09-09T12:15:01;1.20;;;0.53;;
8104;SDS011;4095;48.942;9.104;2022-09-09T12:17:52;1.73;;;0.60;;
8104;SDS011;4095;48.942;9.104;2022-09-09T12:37:24;1.67;;;0.70;;
8104;SDS011;4095;48.942;9.104;2022-09-09T12:40:23;1.73;;;0.98;;
8104;SDS011;4095;48.942;9.104;2022-09-09T12:42:51;2.08;;;1.20;;
8104;SDS011;4095;48.942;9.104;2022-09-09T12:45:20;1.90;;;0.93;;
8104;SDS011;4095;48.942;9.104;2022-09-09T12:47:59;2.00;;;0.77;;
8104;SDS011;4095;48.942;9.104;2022-09-09T12:50:32;3.78;;;0.82;;
8104;SDS011;4095;48.942;9.104;2022-09-09T12:56:01;1.52;;;0.70;;
8104;SDS011;4095;48.942;9.104;2022-09-09T12:58:34;1.65;;;0.75;;
8104;SDS011;4095;48.942;9.104;2022-09-09T13:01:03;2.17;;;1.00;;
8104;SDS011;4095;48.942;9.104;2022-09-09T13:03:30;1.35;;;0.90;;
8104;SDS011;4095;48.942;9.104;2022-09-09T13:05:58;2.05;;;0.98;;
8104;SDS011;4095;48.942;9.104;2022-09-09T13:08:36;1.55;;;0.80;;
8104;SDS011;4095;48.942;9.104;2022-09-09T13:11:03;2.08;;;0.90;;
8104;SDS011;4095;48.942;9.104;2022-09-09T13:13:35;3.28;;;1.08;;
8104;SDS011;4095;48.942;9.104;2022-09-09T13:16:05;1.83;;;0.82;;
8104;SDS011;4095;48.942;9.104;2022-09-09T13:18:41;1.80;;;0.63;;
8104;SDS011;4095;48.942;9.104;2022-09-09T13:21:07;3.38;;;1.00;;
8104;SDS011;4095;48.942;9.104;2022-09-09T13:23:33;3.20;;;0.88;;
8104;SDS011;4095;48.942;9.104;2022-09-09T13:26:02;2.28;;;0.82;;
8104;SDS011;4095;48.942;9.104;2022-09-09T13:28:31;2.00;;;0.73;;
8104;SDS011;4095;48.942;9.104;2022-09-09T13:31:05;1.23;;;0.60;;
8104;SDS011;4095;48.942;9.104;2022-09-09T13:33:44;1.90;;;0.68;;
8104;SDS011;4095;48.942;9.104;2022-09-09T13:36:10;1.73;;;0.60;;
8104;SDS011;4095;48.942;9.104;2022-09-09T13:38:40;2.22;;;0.77;;
8104;SDS011;4095;48.942;9.104;2022-09-09T13:42:05;2.22;;;0.90;;
8104;SDS011;4095;48.942;9.104;2022-09-09T13:44:22;2.92;;;1.05;;
8104;SDS011;4095;48.942;9.104;2022-09-09T13:46:59;1.88;;;0.65;;
8104;SDS011;4095;48.942;9.104;2022-09-09T13:49:26;3.05;;;0.75;;
8104;SDS011;4095;48.942;9.104;2022-09-09T13:52:03;3.47;;;0.85;;
8104;SDS011;4095;48.942;9.104;2022-09-09T13:54:36;1.73;;;0.93;;
8104;SDS011;4095;48.942;9.104;2022-09-09T13:57:02;3.17;;;1.02;;
8104;SDS011;4095;48.942;9.104;2022-09-09T13:59:29;2.17;;;1.08;;
8104;SDS011;4095;48.942;9.104;2022-09-09T14:01:56;1.65;;;0.65;;
8104;SDS011;4095;48.942;9.104;2022-09-09T14:04:22;2.67;;;0.63;;
8104;SDS011;4095;48.942;9.104;2022-09-09T14:06:48;1.85;;;0.82;;
8104;SDS011;4095;48.942;9.104;2022-09-09T14:09:16;2.00;;;0.77;;
8104;SDS011;4095;48.942;9.104;2022-09-09T14:11:43;2.72;;;0.88;;
8104;SDS011;4095;48.942;9.104;2022-09-09T14:14:10;1.92;;;0.75;;
8104;SDS011;4095;48.942;9.104;2022-09-09T14:16:36;2.08;;;0.98;;
8104;SDS011;4095;48.942;9.104;2022-09-09T14:19:02;1.88;;;0.90;;
8104;SDS011;4095;48.942;9.104;2022-09-09T14:21:29;1.55;;;0.50;;
8104;SDS011;4095;48.942;9.104;2022-09-09T14:23:54;2.30;;;1.10;;
8104;SDS011;4095;48.942;9.104;2022-09-09T14:26:23;1.02;;;0.57;;
8104;SDS011;4095;48.942;9.104;2022-09-09T14:28:49;1.45;;;0.60;;
8104;SDS011;4095;48.942;9.104;2022-09-09T14:31:15;2.10;;;0.88;;
8104;SDS011;4095;48.942;9.104;2022-09-09T14:33:42;2.08;;;0.80;;
8104;SDS011;4095;48.942;9.104;2022-09-09T14:36:08;2.33;;;0.80;;
8104;SDS011;4095;48.942;9.104;2022-09-09T14:38:36;2.20;;;0.90;;
8104;SDS011;4095;48.942;9.104;2022-09-09T14:41:05;2.75;;;1.00;;
8104;SDS011;4095;48.942;9.104;2022-09-09T14:43:31;2.35;;;0.95;;
8104;SDS011;4095;48.942;9.104;2022-09-09T14:45:57;1.98;;;0.70;;
8104;SDS011;4095;48.942;9.104;2022-09-09T14:48:33;1.65;;;0.57;;
8104;SDS011;4095;48.942;9.104;2022-09-09T14:51:07;2.97;;;0.90;;
8104;SDS011;4095;48.942;9.104;2022-09-09T14:53:33;2.28;;;0.85;;
8104;SDS011;4095;48.942;9.104;2022-09-09T14:56:03;2.00;;;0.68;;
8104;SDS011;4095;48.942;9.104;2022-09-09T14:58:30;2.28;;;0.77;;
8104;SDS011;4095;48.942;9.104;2022-09-09T15:01:01;2.13;;;0.75;;
8104;SDS011;4095;48.942;9.104;2022-09-09T15:03:28;1.50;;;0.70;;
8104;SDS011;4095;48.942;9.104;2022-09-09T15:05:53;2.15;;;0.95;;
8104;SDS011;4095;48.942;9.104;2022-09-09T15:08:19;2.45;;;0.80;;
8104;SDS011;4095;48.942;9.104;2022-09-09T15:10:44;1.83;;;0.85;;
8104;SDS011;4095;48.942;9.104;2022-09-09T15:13:12;1.65;;;0.65;;
8104;SDS011;4095;48.942;9.104;2022-09-09T15:15:41;1.45;;;0.55;;
8104;SDS011;4095;48.942;9.104;2022-09-09T15:18:08;1.15;;;0.60;;
8104;SDS011;4095;48.942;9.104;2022-09-09T15:20:33;1.92;;;0.60;;
8104;SDS011;4095;48.942;9.104;2022-09-09T15:23:00;1.08;;;0.63;;
8104;SDS011;4095;48.942;9.104;2022-09-09T15:25:26;1.33;;;0.60;;
8104;SDS011;4095;48.942;9.104;2022-09-09T15:27:51;1.13;;;0.60;;
8104;SDS011;4095;48.942;9.104;2022-09-09T15:30:17;2.30;;;0.80;;
8104;SDS011;4095;48.942;9.104;2022-09-09T15:32:43;1.48;;;0.80;;
8104;SDS011;4095;48.942;9.104;2022-09-09T15:35:08;1.58;;;0.73;;
8104;SDS011;4095;48.942;9.104;2022-09-09T15:37:34;1.52;;;0.60;;
8104;SDS011;4095;48.942;9.104;2022-09-09T15:39:59;1.27;;;0.68;;
8104;SDS011;4095;48.942;9.104;2022-09-09T15:42:25;2.70;;;0.82;;
8104;SDS011;4095;48.942;9.104;2022-09-09T15:44:51;1.60;;;0.70;;
8104;SDS011;4095;48.942;9.104;2022-09-09T15:47:16;0.80;;;0.50;;
8104;SDS011;4095;48.942;9.104;2022-09-09T15:49:42;1.77;;;0.85;;
8104;SDS011;4095;48.942;9.104;2022-09-09T15:52:09;1.25;;;0.55;;
8104;SDS011;4095;48.942;9.104;2022-09-09T15:54:36;1.50;;;0.70;;
8104;SDS011;4095;48.942;9.104;2022-09-09T15:57:04;3.42;;;0.75;;
8104;SDS011;4095;48.942;9.104;2022-09-09T15:59:31;2.15;;;0.70;;
8104;SDS011;4095;48.942;9.104;2022-09-09T16:01:59;1.20;;;0.60;;
8104;SDS011;4095;48.942;9.104;2022-09-09T16:04:25;1.95;;;0.80;;
8104;SDS011;4095;48.942;9.104;2022-09-09T16:06:52;1.77;;;0.80;;
8104;SDS011;4095;48.942;9.104;2022-09-09T16:09:20;5.03;;;1.35;;
8104;SDS011;4095;48.942;9.104;2022-09-09T16:11:46;6.55;;;2.50;;
8104;SDS011;4095;48.942;9.104;2022-09-09T16:14:12;2.13;;;1.00;;
8104;SDS011;4095;48.942;9.104;2022-09-09T16:16:40;2.55;;;1.10;;
8104;SDS011;4095;48.942;9.104;2022-09-09T16:19:07;1.20;;;0.70;;
8104;SDS011;4095;48.942;9.104;2022-09-09T16:21:39;3.10;;;0.93;;
8104;SDS011;4095;48.942;9.104;2022-09-09T16:24:07;1.95;;;0.75;;
8104;SDS011;4095;48.942;9.104;2022-09-09T16:26:35;1.07;;;0.70;;
8104;SDS011;4095;48.942;9.104;2022-09-09T16:29:02;6.70;;;1.30;;
8104;SDS011;4095;48.942;9.104;2022-09-09T16:31:28;3.23;;;1.27;;
8104;SDS011;4095;48.942;9.104;2022-09-09T16:33:55;3.60;;;0.87;;
8104;SDS011;4095;48.942;9.104;2022-09-09T16:36:21;3.03;;;0.90;;
8104;SDS011;4095;48.942;9.104;2022-09-09T16:38:52;2.33;;;1.00;;
8104;SDS011;4095;48.942;9.104;2022-09-09T16:41:20;3.63;;;0.90;;
8104;SDS011;4095;48.942;9.104;2022-09-09T16:43:46;1.97;;;0.73;;
8104;SDS011;4095;48.942;9.104;2022-09-09T16:46:18;2.73;;;0.93;;
8104;SDS011;4095;48.942;9.104;2022-09-09T16:48:45;3.13;;;1.07;;
8104;SDS011;4095;48.942;9.104;2022-09-09T16:51:13;3.20;;;0.93;;
8104;SDS011;4095;48.942;9.104;2022-09-09T16:53:39;5.13;;;1.20;;
8104;SDS011;4095;48.942;9.104;2022-09-09T16:56:07;1.57;;;0.70;;
8104;SDS011;4095;48.942;9.104;2022-09-09T16:58:38;2.03;;;1.00;;
8104;SDS011;4095;48.942;9.104;2022-09-09T17:01:04;2.83;;;1.07;;
8104;SDS011;4095;48.942;9.104;2022-09-09T17:03:30;1.57;;;0.73;;
8104;SDS011;4095;48.942;9.104;2022-09-09T17:05:57;1.17;;;0.70;;
8104;SDS011;4095;48.942;9.104;2022-09-09T17:08:26;1.27;;;0.70;;
8104;SDS011;4095;48.942;9.104;2022-09-09T17:10:54;1.73;;;0.80;;
8104;SDS011;4095;48.942;9.104;2022-09-09T17:13:19;3.50;;;0.70;;
8104;SDS011;4095;48.942;9.104;2022-09-09T17:15:45;2.07;;;0.63;;
8104;SDS011;4095;48.942;9.104;2022-09-09T17:18:11;1.97;;;0.73;;
8104;SDS011;4095;48.942;9.104;2022-09-09T17:20:41;1.13;;;0.60;;
8104;SDS011;4095;48.942;9.104;2022-09-09T17:23:07;1.73;;;0.50;;
8104;SDS011;4095;48.942;9.104;2022-09-09T17:25:34;2.47;;;0.97;;
8104;SDS011;4095;48.942;9.104;2022-09-09T17:28:01;2.63;;;1.10;;
8104;SDS011;4095;48.942;9.104;2022-09-09T17:30:29;2.13;;;0.90;;
8104;SDS011;4095;48.942;9.104;2022-09-09T17:32:58;3.57;;;1.07;;
8104;SDS011;4095;48.942;9.104;2022-09-09T17:35:24;1.90;;;0.87;;
8104;SDS011;4095;48.942;9.104;2022-09-09T17:37:50;2.50;;;1.10;;
8104;SDS011;4095;48.942;9.104;2022-09-09T17:40:17;3.10;;;1.40;;
8104;SDS011;4095;48.942;9.104;2022-09-09T17:42:42;2.80;;;1.10;;
8104;SDS011;4095;48.942;9.104;2022-09-09T17:45:08;2.20;;;0.90;;
8104;SDS011;4095;48.942;9.104;2022-09-09T17:47:34;4.07;;;1.17;;
8104;SDS011;4095;48.942;9.104;2022-09-09T17:50:00;3.17;;;1.03;;
8104;SDS011;4095;48.942;9.104;2022-09-09T17:52:26;2.27;;;1.30;;
8104;SDS011;4095;48.942;9.104;2022-09-09T17:54:52;1.23;;;0.97;;
8104;SDS011;4095;48.942;9.104;2022-09-09T17:57:21;1.57;;;0.83;;
8104;SDS011;4095;48.942;9.104;2022-09-09T17:59:47;1.77;;;0.90;;
8104;SDS011;4095;48.942;9.104;2022-09-09T18:02:12;1.53;;;0.90;;
8104;SDS011;4095;48.942;9.104;2022-09-09T18:04:38;3.43;;;1.03;;
8104;SDS011;4095;48.942;9.104;2022-09-09T18:07:04;1.43;;;0.90;;
8104;SDS011;4095;48.942;9.104;2022-09-09T18:09:30;2.10;;;1.07;;
8104;SDS011;4095;48.942;9.104;2022-09-09T18:11:57;1.67;;;0.97;;
8104;SDS011;4095;48.942;9.104;2022-09-09T18:14:25;2.57;;;1.20;;
8104;SDS011;4095;48.942;9.104;2022-09-09T18:16:55;3.33;;;1.10;;
8104;SDS011;4095;48.942;9.104;2022-09-09T18:19:23;2.87;;;1.13;;
8104;SDS011;4095;48.942;9.104;2022-09-09T18:21:53;1.53;;;1.07;;